createdAt,value
2019-01-14T00:00:08.309Z,27.8
2019-01-14T00:00:58.564Z,27.9
2019-01-14T00:01:48.346Z,28
2019-01-14T00:02:38.953Z,28.1
2019-01-14T00:03:28.765Z,28.2
2019-01-14T00:04:18.866Z,28.3
2019-01-14T00:05:09.064Z,28.3
2019-01-14T00:05:58.221Z,28.4
2019-01-14T00:06:48.801Z,28.4
2019-01-14T00:07:38.893Z,28.5
2019-01-14T00:08:28.601Z,28.6
2019-01-14T00:09:34.283Z,28.6
2019-01-14T00:10:08.988Z,28.7
2019-01-14T00:10:59.805Z,28.7
2019-01-14T00:11:49.318Z,28.7
2019-01-14T00:12:39.388Z,28.8
2019-01-14T00:13:29.400Z,28.8
2019-01-14T00:14:19.731Z,28.8
2019-01-14T00:15:09.555Z,28.8
2019-01-14T00:15:59.662Z,28.9
2019-01-14T00:16:50.269Z,28.9
2019-01-14T00:17:39.990Z,28.9
2019-01-14T00:18:30.340Z,28.9
2019-01-14T00:19:20.077Z,29
2019-01-14T00:20:09.442Z,29
2019-01-14T00:21:00.187Z,29
2019-01-14T00:21:50.250Z,28.9
2019-01-14T00:22:39.481Z,28.9
2019-01-14T00:23:30.706Z,28.9
2019-01-14T00:24:20.460Z,28.9
2019-01-14T00:25:10.690Z,28.8
2019-01-14T00:26:00.287Z,28.8
2019-01-14T00:26:50.332Z,28.7
2019-01-14T00:27:40.981Z,28.6
2019-01-14T00:28:30.430Z,28.6
2019-01-14T00:29:21.036Z,28.2
2019-01-14T00:31:00.337Z,27.5
2019-01-14T00:31:51.219Z,27.3
2019-01-14T00:32:42.064Z,27.3
2019-01-14T00:33:31.085Z,27.4
2019-01-14T00:34:21.145Z,27.3
2019-01-14T00:35:10.901Z,27.3
2019-01-14T00:36:01.297Z,27.2
2019-01-14T00:36:50.787Z,27.2
2019-01-14T00:37:41.349Z,27.3
2019-01-14T00:38:32.849Z,27.4
2019-01-14T00:39:20.964Z,27.6
2019-01-14T00:40:10.546Z,27.7
2019-01-14T00:41:51.421Z,27.9
2019-01-14T00:42:41.188Z,28
2019-01-14T00:43:31.471Z,28.1
2019-01-14T00:44:21.284Z,28.2
2019-01-14T00:45:11.621Z,28.3
2019-01-14T00:46:02.181Z,28.3
2019-01-14T00:46:52.233Z,28.1
2019-01-14T00:47:43.991Z,28
2019-01-14T00:48:32.373Z,27.8
2019-01-14T00:49:21.894Z,27.5
2019-01-14T00:50:11.910Z,27.3
2019-01-14T00:51:02.243Z,27.2
2019-01-14T00:51:51.736Z,27.2
2019-01-14T00:52:42.085Z,27.3
2019-01-14T00:53:32.422Z,27.4
2019-01-14T00:54:21.998Z,27.6
2019-01-14T00:55:12.018Z,27.6
2019-01-14T00:56:02.028Z,27.4
2019-01-14T00:56:52.625Z,27.3
2019-01-14T00:57:43.015Z,27
2019-01-14T00:58:32.503Z,26.9
2019-01-14T00:59:21.684Z,26.9
2019-01-14T01:00:12.860Z,27.1
2019-01-14T01:01:03.195Z,27.3
2019-01-14T01:01:52.735Z,27.4
2019-01-14T01:02:43.307Z,27.6
2019-01-14T01:03:32.817Z,27.7
2019-01-14T01:05:12.695Z,27.9
2019-01-14T01:06:03.564Z,28
2019-01-14T01:06:53.030Z,28.1
2019-01-14T01:07:42.269Z,28.1
2019-01-14T01:08:33.253Z,28.2
2019-01-14T01:09:22.912Z,28.3
2019-01-14T01:10:13.912Z,28.3
2019-01-14T01:11:03.027Z,28.4
2019-01-14T01:11:52.257Z,28.4
2019-01-14T01:12:45.275Z,28.4
2019-01-14T01:13:33.542Z,28.5
2019-01-14T01:14:23.597Z,28.6
2019-01-14T01:15:14.144Z,28.6
2019-01-14T01:16:03.642Z,28.6
2019-01-14T01:16:54.026Z,28.6
2019-01-14T01:17:44.059Z,28.7
2019-01-14T01:18:34.085Z,28.7
2019-01-14T01:19:23.898Z,28.8
2019-01-14T01:20:13.386Z,28.8
2019-01-14T01:21:02.869Z,28.8
2019-01-14T01:21:54.018Z,28.8
2019-01-14T01:22:43.819Z,28.8
2019-01-14T01:23:33.873Z,28.9
2019-01-14T01:24:24.205Z,28.9
2019-01-14T01:25:14.806Z,28.9
2019-01-14T01:26:04.084Z,28.9
2019-01-14T01:26:54.411Z,29
2019-01-14T01:27:44.475Z,28.9
2019-01-14T01:28:35.032Z,28.9
2019-01-14T01:29:24.528Z,28.9
2019-01-14T01:30:14.161Z,28.8
2019-01-14T01:31:04.723Z,28.8
2019-01-14T01:31:54.513Z,28.8
2019-01-14T01:32:44.593Z,28.7
2019-01-14T01:33:34.893Z,28.6
2019-01-14T01:34:24.671Z,28.6
2019-01-14T01:35:15.533Z,28.4
2019-01-14T01:36:05.030Z,28
2019-01-14T01:36:55.378Z,27.7
2019-01-14T01:37:45.407Z,27.3
2019-01-14T01:38:35.523Z,27.3
2019-01-14T01:39:25.253Z,27.3
2019-01-14T01:40:14.717Z,27.4
2019-01-14T01:41:06.868Z,27.2
2019-01-14T01:41:55.447Z,27.1
2019-01-14T01:42:45.442Z,27.1
2019-01-14T01:43:35.795Z,27.1
2019-01-14T01:44:26.110Z,27.2
2019-01-14T01:45:17.584Z,27.4
2019-01-14T01:46:06.042Z,27.6
2019-01-14T01:46:55.747Z,27.6
2019-01-14T01:47:45.052Z,27.8
2019-01-14T01:48:35.834Z,27.9
2019-01-14T01:49:26.188Z,27.9
2019-01-14T01:50:15.740Z,28
2019-01-14T01:51:06.326Z,28.1
2019-01-14T01:51:56.391Z,28.2
2019-01-14T01:52:46.512Z,28.3
2019-01-14T01:53:36.482Z,28.3
2019-01-14T01:54:25.999Z,28.3
2019-01-14T01:55:16.344Z,28.4
2019-01-14T03:08:55.130Z,28.1
2019-01-14T03:09:44.712Z,28.1
2019-01-14T03:10:34.470Z,28.2
2019-01-14T03:11:24.534Z,28.3
2019-01-14T03:12:14.462Z,28.3
2019-01-14T03:13:04.736Z,28.4
2019-01-14T03:13:54.502Z,28.4
2019-01-14T03:14:45.133Z,28.4
2019-01-14T03:15:34.509Z,28.5
2019-01-14T03:16:25.154Z,28.5
2019-01-14T03:17:15.551Z,28.6
2019-01-14T03:18:04.997Z,28.6
2019-01-14T03:18:55.398Z,28.6
2019-01-14T03:19:44.104Z,28.6
2019-01-14T03:20:35.174Z,28.6
2019-01-14T03:21:25.471Z,28.7
2019-01-14T03:22:15.874Z,28.7
2019-01-14T03:23:05.332Z,28.8
2019-01-14T03:23:55.260Z,28.8
2019-01-14T03:24:45.493Z,28.8
2019-01-14T03:25:35.594Z,28.8
2019-01-14T03:26:25.636Z,28.8
2019-01-14T03:27:15.902Z,28.8
2019-01-14T03:28:05.661Z,28.7
2019-01-14T03:28:55.498Z,28.5
2019-01-14T03:29:46.083Z,28.3
2019-01-14T03:30:36.334Z,27.9
2019-01-14T03:31:26.098Z,27.7
2019-01-14T03:32:16.754Z,27.6
2019-01-14T03:33:06.104Z,27.6
2019-01-14T03:33:56.659Z,27.7
2019-01-14T03:35:35.895Z,27.9
2019-01-14T03:36:26.259Z,27.9
2019-01-14T03:37:16.660Z,27.6
2019-01-14T03:38:06.415Z,27.4
2019-01-14T03:38:58.054Z,27.2
2019-01-14T03:39:46.555Z,27.1
2019-01-14T03:40:36.500Z,27.1
2019-01-14T03:41:26.857Z,27.3
2019-01-14T03:42:17.267Z,27.4
2019-01-14T03:43:06.684Z,27.6
2019-01-14T03:43:56.256Z,27.7
2019-01-14T03:45:36.629Z,27.9
2019-01-14T03:46:26.676Z,28
2019-01-14T03:47:16.817Z,28.1
2019-01-14T03:48:57.429Z,28.2
2019-01-14T03:49:46.577Z,28.3
2019-01-14T03:50:36.254Z,28.3
2019-01-14T03:51:27.234Z,28.3
2019-01-14T03:52:17.609Z,28.4
2019-01-14T03:53:07.462Z,28.4
2019-01-14T03:53:57.450Z,28.4
2019-01-14T03:54:47.714Z,28.5
2019-01-14T03:55:37.032Z,28.6
2019-01-14T03:56:28.116Z,28.6
2019-01-14T03:57:17.939Z,28.6
2019-01-14T03:58:07.246Z,28.6
2019-01-14T03:58:57.736Z,28.7
2019-01-14T03:59:47.651Z,28.7
2019-01-14T04:00:38.133Z,28.8
2019-01-14T04:01:27.611Z,28.8
2019-01-14T04:02:18.548Z,28.8
2019-01-14T04:03:07.958Z,28.8
2019-01-14T04:03:58.665Z,28.8
2019-01-14T04:04:48.481Z,28.9
2019-01-14T04:05:38.226Z,28.9
2019-01-14T04:06:28.525Z,28.9
2019-01-14T04:07:24.653Z,28.9
2019-01-14T04:08:08.343Z,28.9
2019-01-14T04:08:58.461Z,28.9
2019-01-14T04:09:48.488Z,28.9
2019-01-14T04:10:38.565Z,28.9
2019-01-14T04:11:28.327Z,29
2019-01-14T04:12:18.685Z,29
2019-01-14T04:13:08.709Z,29
2019-01-14T04:13:58.806Z,29
2019-01-14T04:14:48.251Z,29.1
2019-01-14T04:15:39.148Z,29.1
2019-01-14T04:16:28.362Z,29.1
2019-01-14T04:17:18.777Z,29.1
2019-01-14T04:18:09.052Z,28.9
2019-01-14T04:18:58.289Z,28.9
2019-01-14T04:19:48.602Z,28.9
2019-01-14T04:20:38.942Z,28.8
2019-01-14T04:21:29.321Z,28.8
2019-01-14T04:22:19.023Z,28.8
2019-01-14T04:23:11.124Z,28.7
2019-01-14T04:23:58.954Z,28.6
2019-01-14T04:24:50.046Z,28.5
2019-01-14T04:25:40.075Z,28.1
2019-01-14T04:26:29.055Z,27.6
2019-01-14T04:27:19.785Z,27.3
2019-01-14T04:28:09.487Z,27.4
2019-01-14T04:28:59.285Z,27.4
2019-01-14T04:29:50.111Z,27.4
2019-01-14T04:30:39.715Z,27.3
2019-01-14T04:31:29.584Z,27.2
2019-01-14T04:32:19.826Z,27.2
2019-01-14T04:33:09.843Z,27.2
2019-01-14T04:34:00.204Z,27.3
2019-01-14T04:34:50.316Z,27.4
2019-01-14T04:35:39.656Z,27.6
2019-01-14T04:36:29.840Z,27.8
2019-01-14T04:37:28.409Z,27.9
2019-01-14T04:38:10.435Z,27.9
2019-01-14T04:39:00.436Z,28
2019-01-14T04:39:51.098Z,28.1
2019-01-14T04:40:40.911Z,28.2
2019-01-14T04:41:30.934Z,28.2
2019-01-14T04:42:21.046Z,28.3
2019-01-14T04:43:10.905Z,28.3
2019-01-14T04:44:00.777Z,28.4
2019-01-14T04:44:51.091Z,28.4
2019-01-14T04:45:41.218Z,28.4
2019-01-14T04:46:30.409Z,28.4
2019-01-14T04:47:20.443Z,28.4
2019-01-14T04:48:11.146Z,28.3
2019-01-14T04:49:01.744Z,28.1
2019-01-14T04:49:51.481Z,27.9
2019-01-14T04:50:41.101Z,27.6
2019-01-14T04:51:31.274Z,27.4
2019-01-14T04:52:21.365Z,27.3
2019-01-14T04:53:10.945Z,27.3
2019-01-14T04:54:01.788Z,27.3
2019-01-14T04:54:52.060Z,27.5
2019-01-14T04:55:41.354Z,27.6
2019-01-14T04:56:31.951Z,27.6
2019-01-14T04:57:21.160Z,27.6
2019-01-14T04:58:11.847Z,27.3
2019-01-14T04:59:02.371Z,27.1
2019-01-14T04:59:51.655Z,26.9
2019-01-14T05:00:41.920Z,26.8
2019-01-14T05:01:32.537Z,26.9
2019-01-14T05:02:22.171Z,27.1
2019-01-14T05:03:12.131Z,27.3
2019-01-14T05:04:02.162Z,27.4
2019-01-14T05:04:52.253Z,27.5
2019-01-14T05:05:42.251Z,27.6
2019-01-14T05:06:31.325Z,27.7
2019-01-14T05:08:12.531Z,27.9
2019-01-14T05:09:02.195Z,27.9
2019-01-14T05:09:51.991Z,28
2019-01-14T05:10:42.674Z,28.1
2019-01-14T05:11:32.960Z,28.1
2019-01-14T05:12:22.508Z,28.2
2019-01-14T05:13:12.780Z,28.2
2019-01-14T05:14:03.112Z,28.3
2019-01-14T05:14:52.095Z,28.3
2019-01-14T05:15:44.944Z,28.2
2019-01-14T05:16:33.263Z,28.1
2019-01-14T05:17:22.496Z,28.1
2019-01-14T05:18:13.098Z,28
2019-01-14T05:19:02.891Z,27.9
2019-01-14T05:20:42.954Z,27.8
2019-01-14T05:21:33.422Z,27.7
2019-01-14T05:22:23.449Z,27.6
2019-01-14T05:23:12.230Z,27.5
2019-01-14T05:24:03.297Z,27.4
2019-01-14T05:24:52.608Z,27.3
2019-01-14T05:25:42.372Z,27.2
2019-01-14T05:26:33.217Z,27.1
2019-01-14T05:27:23.798Z,27.1
2019-01-14T05:28:12.857Z,26.9
2019-01-14T05:29:02.530Z,26.9
2019-01-14T05:29:53.370Z,26.8
2019-01-14T05:30:43.141Z,26.8
2019-01-14T05:31:33.232Z,26.7
2019-01-14T05:32:24.071Z,26.7
2019-01-14T05:33:13.174Z,26.6
2019-01-14T05:34:04.146Z,26.5
2019-01-14T05:34:53.817Z,26.5
2019-01-14T05:35:44.276Z,26.4
2019-01-14T05:36:34.697Z,26.4
2019-01-14T05:37:24.646Z,26.4
2019-01-14T05:38:14.428Z,26.3
2019-01-14T05:39:04.876Z,26.3
2019-01-14T05:39:55.072Z,26.2
2019-01-14T05:40:44.963Z,26.1
2019-01-14T05:41:34.366Z,26.1
2019-01-14T05:42:24.544Z,26
2019-01-14T05:43:15.003Z,25.9
2019-01-14T05:44:04.056Z,25.9
2019-01-14T05:44:55.166Z,25.8
2019-01-14T05:45:44.973Z,25.8
2019-01-14T05:46:35.516Z,25.7
2019-01-14T05:47:24.537Z,25.6
2019-01-14T05:48:15.740Z,25.6
2019-01-14T05:49:05.707Z,25.5
2019-01-14T05:49:55.194Z,25.3
2019-01-14T05:50:45.343Z,25.8
2019-01-14T05:51:35.568Z,25.5
2019-01-14T05:52:25.658Z,25.6
2019-01-14T05:53:15.693Z,25.6
2019-01-14T05:54:06.032Z,25.6
2019-01-14T05:54:55.810Z,25.9
2019-01-14T05:55:46.156Z,26.4
2019-01-14T05:56:34.808Z,27
2019-01-14T05:57:25.740Z,27.4
2019-01-14T05:58:15.790Z,27.8
2019-01-14T05:59:05.795Z,28.1
2019-01-14T05:59:55.918Z,28.3
2019-01-14T06:00:45.987Z,28.4
2019-01-14T06:01:36.002Z,28.4
2019-01-14T06:02:26.306Z,28.5
2019-01-14T06:03:16.730Z,28.6
2019-01-14T06:04:06.750Z,28.6
2019-01-14T06:06:54.715Z,28.4
2019-01-14T06:07:52.102Z,28.2
2019-01-14T06:08:33.851Z,27.9
2019-01-14T06:10:15.042Z,27.6
2019-01-14T06:11:05.017Z,27.4
2019-01-14T06:11:55.105Z,27.3
2019-01-14T06:12:44.977Z,27.1
2019-01-14T06:13:35.279Z,27
2019-01-14T06:14:25.263Z,26.9
2019-01-14T06:15:15.472Z,27.2
2019-01-14T06:16:04.697Z,27.6
2019-01-14T06:16:54.724Z,28.1
2019-01-14T06:17:44.423Z,28.4
2019-01-14T06:18:35.092Z,28.6
2019-01-14T06:19:25.099Z,28.9
2019-01-14T06:20:14.031Z,29
2019-01-14T06:21:04.673Z,29.1
2019-01-14T06:21:55.113Z,29.1
2019-01-14T06:22:44.801Z,29.2
2019-01-14T06:23:35.370Z,29.2
2019-01-14T06:24:24.609Z,29.1
2019-01-14T06:25:15.016Z,29.1
2019-01-14T06:26:05.618Z,28.9
2019-01-14T06:26:55.033Z,28.9
2019-01-14T06:27:45.425Z,28.7
2019-01-14T06:28:34.623Z,28.6
2019-01-14T06:29:25.533Z,28.3
2019-01-14T06:30:15.535Z,28.1
2019-01-14T06:31:04.550Z,27.9
2019-01-14T06:31:55.191Z,27.8
2019-01-14T06:32:45.271Z,27.6
2019-01-14T06:33:35.605Z,27.4
2019-01-14T06:34:25.495Z,27.4
2019-01-14T06:35:15.689Z,27.6
2019-01-14T06:36:07.546Z,27.9
2019-01-14T06:36:55.372Z,28.3
2019-01-14T06:37:52.796Z,28.6
2019-01-14T06:38:35.455Z,28.9
2019-01-14T06:39:26.165Z,29.1
2019-01-14T06:40:16.450Z,29.2
2019-01-14T06:41:06.549Z,29.3
2019-01-14T06:41:56.773Z,29.3
2019-01-14T06:42:46.717Z,29.3
2019-01-14T06:43:36.887Z,29.3
2019-01-14T06:44:27.452Z,29.3
2019-01-14T06:45:16.824Z,29.1
2019-01-14T06:46:07.367Z,29
2019-01-14T06:46:56.642Z,28.8
2019-01-14T06:47:47.277Z,28.6
2019-01-14T06:48:38.477Z,28.4
2019-01-14T06:49:26.363Z,28.3
2019-01-14T06:50:16.894Z,28.1
2019-01-14T06:51:07.229Z,27.9
2019-01-14T06:51:57.039Z,27.7
2019-01-14T06:52:47.062Z,27.6
2019-01-14T06:53:37.391Z,27.5
2019-01-14T06:54:26.683Z,27.4
2019-01-14T06:55:16.799Z,27.5
2019-01-14T06:56:57.629Z,28.3
2019-01-14T06:57:47.739Z,28.6
2019-01-14T06:58:37.441Z,28.8
2019-01-14T06:59:27.519Z,28.9
2019-01-14T07:00:17.121Z,29
2019-01-14T07:01:07.951Z,29
2019-01-14T07:01:57.949Z,29
2019-01-14T07:02:46.940Z,28.9
2019-01-14T07:03:37.307Z,28.8
2019-01-14T07:04:27.603Z,28.6
2019-01-14T07:06:54.259Z,28.9
2019-01-14T07:07:43.784Z,29.1
2019-01-14T07:08:33.849Z,29.1
2019-01-14T07:09:24.399Z,29.1
2019-01-14T07:10:14.177Z,29
2019-01-14T07:11:03.942Z,28.8
2019-01-14T07:11:54.119Z,28.6
2019-01-14T07:12:44.616Z,28.4
2019-01-14T07:13:34.411Z,28.1
2019-01-14T07:14:24.439Z,27.9
2019-01-14T07:15:14.507Z,27.7
2019-01-14T07:16:04.823Z,27.6
2019-01-14T07:16:54.676Z,27.5
2019-01-14T07:17:44.159Z,27.3
2019-01-14T07:18:34.769Z,27.3
2019-01-14T07:19:24.578Z,27.1
2019-01-14T07:20:14.839Z,27.1
2019-01-14T07:21:04.703Z,27
2019-01-14T07:21:54.666Z,26.9
2019-01-14T07:22:45.056Z,26.8
2019-01-14T07:23:35.016Z,26.8
2019-01-14T07:24:25.351Z,26.7
2019-01-14T07:25:15.930Z,26.6
2019-01-14T07:26:05.742Z,26.5
2019-01-14T07:26:55.763Z,26.4
2019-01-14T07:27:45.418Z,26.4
2019-01-14T07:28:35.922Z,26.3
2019-01-14T07:29:25.778Z,26.3
2019-01-14T07:30:15.243Z,26.3
2019-01-14T07:31:05.513Z,26.2
2019-01-14T07:31:55.633Z,26.2
2019-01-14T07:32:45.943Z,26.1
2019-01-14T07:33:36.203Z,26.1
2019-01-14T07:34:26.338Z,26
2019-01-14T07:35:15.861Z,25.9
2019-01-14T07:36:06.675Z,25.9
2019-01-14T07:36:55.878Z,25.9
2019-01-14T07:37:45.902Z,25.9
2019-01-14T07:38:36.865Z,25.8
2019-01-14T07:39:25.760Z,25.8
2019-01-14T07:40:16.950Z,25.8
2019-01-14T07:41:06.429Z,25.7
2019-01-14T07:41:56.760Z,25.7
2019-01-14T07:42:46.817Z,25.6
2019-01-14T07:43:36.882Z,25.6
2019-01-14T07:44:27.265Z,25.6
2019-01-14T07:45:16.737Z,25.6
2019-01-14T07:46:06.837Z,25.5
2019-01-14T07:46:57.162Z,25.4
2019-01-14T07:47:46.404Z,25.4
2019-01-14T07:48:36.702Z,25.4
2019-01-14T07:49:27.522Z,25.4
2019-01-14T07:50:17.627Z,25.4
2019-01-14T07:51:06.277Z,25.3
2019-01-14T07:51:57.484Z,25.3
2019-01-14T07:52:47.242Z,25.3
2019-01-14T07:53:37.271Z,25.3
2019-01-14T07:54:27.924Z,25.3
2019-01-14T07:55:18.064Z,25.2
2019-01-14T07:56:06.664Z,25.2
2019-01-14T07:56:57.494Z,25.1
2019-01-14T07:57:47.861Z,25.1
2019-01-14T07:58:38.201Z,25.1
2019-01-14T07:59:28.246Z,25.1
2019-01-14T08:00:18.046Z,25.1
2019-01-14T08:01:07.864Z,25.1
2019-01-14T08:01:57.843Z,25.1
2019-01-14T08:02:48.463Z,25
2019-01-14T08:03:38.541Z,24.9
2019-01-14T08:04:27.723Z,24.9
2019-01-14T08:05:17.832Z,24.9
2019-01-14T08:06:08.714Z,24.9
2019-01-14T08:06:58.730Z,24.9
2019-01-14T08:07:48.558Z,24.8
2019-01-14T08:08:38.816Z,24.9
2019-01-14T08:09:28.961Z,24.8
2019-01-14T08:10:18.743Z,24.8
2019-01-14T08:11:08.203Z,24.8
2019-01-14T08:11:59.071Z,24.8
2019-01-14T08:12:49.215Z,24.7
2019-01-14T08:13:38.578Z,24.7
2019-01-14T08:14:28.999Z,24.7
2019-01-14T08:15:18.510Z,24.7
2019-01-14T08:16:09.110Z,24.7
2019-01-14T08:16:59.462Z,24.6
2019-01-14T08:17:49.170Z,24.6
2019-01-14T08:18:39.530Z,24.6
2019-01-14T08:19:30.440Z,24.6
2019-01-14T08:20:19.117Z,24.5
2019-01-14T08:21:09.670Z,24.6
2019-01-14T08:21:59.440Z,24.6
2019-01-14T08:22:49.827Z,24.5
2019-01-14T08:23:39.534Z,24.5
2019-01-14T08:24:29.943Z,24.5
2019-01-14T08:25:19.684Z,24.4
2019-01-14T08:26:09.769Z,24.4
2019-01-14T08:27:00.042Z,24.4
2019-01-14T08:27:49.089Z,24.3
2019-01-14T08:28:39.632Z,24.4
2019-01-14T08:29:29.957Z,24.3
2019-01-14T08:30:20.408Z,24.4
2019-01-14T08:31:10.692Z,24.3
2019-01-14T08:32:00.393Z,24.3
2019-01-14T08:32:49.983Z,24.3
2019-01-14T08:33:40.538Z,24.3
2019-01-14T08:34:30.284Z,24.3
2019-01-14T08:35:20.651Z,24.3
2019-01-14T08:36:10.219Z,24.2
2019-01-14T08:37:09.001Z,24.2
2019-01-14T08:37:50.824Z,24.2
2019-01-14T08:38:40.824Z,24.2
2019-01-14T08:39:30.753Z,24.2
2019-01-14T08:40:19.861Z,24.1
2019-01-14T08:41:10.451Z,24.1
2019-01-14T08:42:00.806Z,24.1
2019-01-14T08:42:50.866Z,24.1
2019-01-14T08:43:41.218Z,24.1
2019-01-14T08:44:31.231Z,24.1
2019-01-14T08:45:20.771Z,24.1
2019-01-14T08:46:11.098Z,24.1
2019-01-14T08:47:01.180Z,24
2019-01-14T08:47:51.548Z,24
2019-01-14T08:49:54.223Z,23.9
2019-01-14T08:50:05.318Z,23.9
2019-01-14T08:50:55.625Z,23.9
2019-01-14T08:51:45.456Z,23.9
2019-01-14T08:52:34.582Z,23.9
2019-01-14T08:53:26.071Z,23.9
2019-01-14T08:54:15.391Z,23.9
2019-01-14T08:55:05.528Z,23.9
2019-01-14T08:55:55.480Z,23.8
2019-01-14T08:56:44.989Z,23.8
2019-01-14T08:57:35.915Z,23.8
2019-01-14T08:58:25.657Z,23.8
2019-01-14T08:59:15.514Z,23.8
2019-01-14T09:00:06.283Z,23.8
2019-01-14T09:00:55.830Z,23.8
2019-01-14T09:01:45.990Z,23.8
2019-01-14T09:02:36.143Z,23.8
2019-01-14T09:03:25.419Z,23.8
2019-01-14T09:04:15.748Z,23.7
2019-01-14T09:05:06.137Z,23.7
2019-01-14T09:05:56.467Z,23.7
2019-01-14T09:06:45.646Z,23.7
2019-01-14T09:07:35.766Z,23.7
2019-01-14T09:08:32.920Z,23.6
2019-01-14T09:09:16.357Z,23.9
2019-01-14T09:10:06.571Z,24.4
2019-01-14T09:10:55.957Z,25
2019-01-14T09:11:46.267Z,25.6
2019-01-14T09:12:36.352Z,26.1
2019-01-14T09:13:26.099Z,26.4
2019-01-14T09:14:16.709Z,26.8
2019-01-14T09:15:06.857Z,26.9
2019-01-14T09:15:57.339Z,27.1
2019-01-14T09:16:46.636Z,27.1
2019-01-14T09:17:36.399Z,27.2
2019-01-14T09:18:26.416Z,27.2
2019-01-14T09:19:16.778Z,27.1
2019-01-14T09:20:07.826Z,27.1
2019-01-14T09:20:56.929Z,26.9
2019-01-14T09:21:47.619Z,26.8
2019-01-14T09:22:36.716Z,26.6
2019-01-14T09:23:27.521Z,26.4
2019-01-14T09:24:17.475Z,26.2
2019-01-14T09:25:07.993Z,26.1
2019-01-14T09:26:04.178Z,25.9
2019-01-14T09:26:49.891Z,25.8
2019-01-14T09:27:37.639Z,25.8
2019-01-14T09:28:26.532Z,26.1
2019-01-14T09:29:17.981Z,26.5
2019-01-14T09:30:07.341Z,26.9
2019-01-14T09:30:57.570Z,27.3
2019-01-14T09:31:48.156Z,27.5
2019-01-14T09:32:37.645Z,27.7
2019-01-14T09:33:28.018Z,27.9
2019-01-14T09:34:18.266Z,27.9
2019-01-14T09:35:08.681Z,27.9
2019-01-14T09:35:58.420Z,27.9
2019-01-14T09:36:48.478Z,27.9
2019-01-14T09:38:28.379Z,27.7
2019-01-14T09:39:18.480Z,27.6
2019-01-14T09:40:09.045Z,27.3
2019-01-14T09:40:59.391Z,27.1
2019-01-14T09:41:48.500Z,26.9
2019-01-14T09:42:39.097Z,26.8
2019-01-14T09:43:29.440Z,26.6
2019-01-14T09:44:19.260Z,26.4
2019-01-14T09:45:09.544Z,26.3
2019-01-14T09:45:58.845Z,26.3
2019-01-14T09:46:49.369Z,26.6
2019-01-14T09:47:39.717Z,27.1
2019-01-14T09:48:29.504Z,27.4
2019-01-14T09:49:19.596Z,27.7
2019-01-14T09:50:09.661Z,27.9
2019-01-14T09:50:59.654Z,28.1
2019-01-14T09:51:50.015Z,28.2
2019-01-14T09:52:39.624Z,28.3
2019-01-14T09:53:30.131Z,28.3
2019-01-14T09:54:19.404Z,28.1
2019-01-14T09:55:15.390Z,28.1
2019-01-14T09:55:59.992Z,27.9
2019-01-14T09:56:50.333Z,27.8
2019-01-14T09:57:41.639Z,27.6
2019-01-14T09:58:29.634Z,27.4
2019-01-14T09:59:20.496Z,27.2
2019-01-14T10:00:10.674Z,26.9
2019-01-14T10:01:00.424Z,26.8
2019-01-14T10:01:50.419Z,26.6
2019-01-14T10:02:39.374Z,26.5
2019-01-14T10:03:29.766Z,26.5
2019-01-14T10:04:19.213Z,26.8
2019-01-14T10:05:10.731Z,27.3
2019-01-14T10:09:33.830Z,27.8
2019-01-14T10:10:24.563Z,27.6
2019-01-14T10:11:13.368Z,27.4
2019-01-14T10:12:04.255Z,27.2
2019-01-14T10:12:54.598Z,27.2
2019-01-14T10:13:44.946Z,27.5
2019-01-14T10:15:24.875Z,28.1
2019-01-14T10:16:15.082Z,28.2
2019-01-14T10:17:04.295Z,28.1
2019-01-14T10:17:54.962Z,28.1
2019-01-14T10:18:45.313Z,28
2019-01-14T10:19:35.355Z,27.9
2019-01-14T10:20:25.125Z,27.6
2019-01-14T10:21:14.885Z,27.4
2019-01-14T10:22:05.537Z,27.1
2019-01-14T10:22:55.317Z,26.9
2019-01-14T10:23:45.592Z,26.8
2019-01-14T10:24:35.435Z,26.6
2019-01-14T10:25:25.688Z,26.5
2019-01-14T10:26:17.237Z,26.4
2019-01-14T10:27:04.709Z,26.6
2019-01-14T10:27:55.120Z,26.9
2019-01-14T10:28:45.692Z,27.3
2019-01-14T10:29:36.032Z,27.6
2019-01-14T10:30:25.272Z,27.8
2019-01-14T10:32:55.469Z,27.7
2019-01-14T10:33:45.742Z,27.6
2019-01-14T10:34:35.323Z,27.4
2019-01-14T10:35:25.070Z,27.1
2019-01-14T10:36:16.143Z,26.9
2019-01-14T10:37:05.632Z,26.9
2019-01-14T10:37:56.072Z,27.3
2019-01-14T10:38:52.662Z,27.6
2019-01-14T10:39:36.185Z,27.9
2019-01-14T10:40:26.615Z,27.9
2019-01-14T10:41:15.985Z,28
2019-01-14T10:42:11.048Z,27.9
2019-01-14T10:43:46.722Z,27.7
2019-01-14T10:44:36.728Z,27.4
2019-01-14T10:45:26.300Z,27.2
2019-01-14T10:46:16.540Z,27
2019-01-14T10:47:06.662Z,26.8
2019-01-14T10:47:56.984Z,26.7
2019-01-14T10:48:47.139Z,26.6
2019-01-14T10:49:36.777Z,26.7
2019-01-14T10:50:26.624Z,27.1
2019-01-14T10:51:16.052Z,27.5
2019-01-14T10:52:06.657Z,27.8
2019-01-14T10:52:56.894Z,27.9
2019-01-14T10:53:47.314Z,28
2019-01-14T10:54:37.644Z,28
2019-01-14T10:55:27.467Z,27.9
2019-01-14T10:57:07.134Z,27.6
2019-01-14T10:57:57.089Z,27.4
2019-01-14T10:58:46.638Z,27.1
2019-01-14T10:59:36.749Z,26.9
2019-01-14T11:00:27.620Z,26.9
2019-01-14T11:01:17.672Z,27.3
2019-01-14T11:02:07.399Z,27.6
2019-01-14T11:02:59.089Z,27.9
2019-01-14T11:03:47.786Z,28.1
2019-01-14T11:04:37.843Z,28.1
2019-01-14T11:05:27.656Z,28.1
2019-01-14T11:06:17.976Z,28
2019-01-14T11:07:57.621Z,27.6
2019-01-14T11:08:48.333Z,27.4
2019-01-14T11:09:38.709Z,27.2
2019-01-14T11:10:28.733Z,27
2019-01-14T11:11:17.464Z,26.8
2019-01-14T11:12:07.516Z,26.8
2019-01-14T11:12:58.186Z,26.9
2019-01-14T11:13:47.556Z,27.3
2019-01-14T11:14:40.713Z,27.7
2019-01-14T11:15:28.546Z,28
2019-01-14T11:16:17.717Z,28.1
2019-01-14T11:17:08.675Z,28.1
2019-01-14T11:17:58.280Z,28.1
2019-01-14T11:18:48.723Z,28
2019-01-14T11:19:39.053Z,27.9
2019-01-14T11:20:28.968Z,27.6
2019-01-14T11:21:23.635Z,27.4
2019-01-14T11:22:08.952Z,27.2
2019-01-14T11:22:59.025Z,27.4
2019-01-14T11:23:49.055Z,27.7
2019-01-14T11:24:39.107Z,28
2019-01-14T11:25:29.476Z,28.2
2019-01-14T11:26:19.517Z,28.3
2019-01-14T11:27:09.827Z,28.3
2019-01-14T11:27:59.377Z,28.2
2019-01-14T11:28:49.700Z,28.1
2019-01-14T11:29:39.710Z,27.9
2019-01-14T11:30:29.352Z,27.6
2019-01-14T11:31:19.849Z,27.4
2019-01-14T11:32:09.932Z,27.2
2019-01-14T11:33:00.273Z,27
2019-01-14T11:33:50.147Z,26.9
2019-01-14T11:34:40.337Z,26.8
2019-01-14T11:35:30.489Z,26.9
2019-01-14T11:36:20.324Z,27.3
2019-01-14T11:37:10.276Z,27.7
2019-01-14T11:38:00.591Z,27.9
2019-01-14T11:38:50.633Z,28.1
2019-01-14T11:39:40.415Z,28.1
2019-01-14T11:40:30.554Z,28.1
2019-01-14T11:41:20.599Z,28
2019-01-14T11:43:00.367Z,27.6
2019-01-14T11:43:50.991Z,27.4
2019-01-14T11:44:41.029Z,27.2
2019-01-14T11:45:30.534Z,27
2019-01-14T11:46:20.581Z,26.9
2019-01-14T11:47:10.779Z,26.9
2019-01-14T11:48:00.403Z,27.3
2019-01-14T11:48:50.459Z,27.6
2019-01-14T11:49:41.364Z,27.9
2019-01-14T11:50:30.907Z,28.2
2019-01-14T11:51:21.491Z,28.3
2019-01-14T11:52:11.274Z,28.3
2019-01-14T11:53:01.621Z,28.3
2019-01-14T11:53:50.786Z,28.1
2019-01-14T11:54:40.631Z,27.9
2019-01-14T11:55:30.945Z,27.8
2019-01-14T11:56:20.681Z,27.5
2019-01-14T11:57:13.296Z,27.3
2019-01-14T11:58:01.655Z,27.1
2019-01-14T11:58:51.721Z,27.1
2019-01-14T11:59:41.305Z,27.4
2019-01-14T12:01:21.920Z,28.1
2019-01-14T12:02:11.638Z,28.2
2019-01-14T12:03:02.534Z,28.3
2019-01-14T12:03:51.783Z,28.3
2019-01-14T12:04:41.820Z,28.1
2019-01-14T12:05:32.485Z,27.9
2019-01-14T12:07:54.761Z,27.4
2019-01-14T12:08:59.825Z,27.1
2019-01-14T12:09:34.000Z,26.9
2019-01-14T12:10:23.810Z,26.9
2019-01-14T12:11:18.507Z,27.1
2019-01-14T12:12:03.347Z,27.5
2019-01-14T12:13:44.219Z,28.1
2019-01-14T12:14:33.185Z,28.3
2019-01-14T12:15:23.515Z,28.3
2019-01-14T12:16:13.577Z,28.4
2019-01-14T12:17:04.414Z,28.3
2019-01-14T12:17:53.909Z,28.1
2019-01-14T12:18:44.782Z,27.9
2019-01-14T12:19:34.641Z,27.7
2019-01-14T12:20:23.821Z,27.4
2019-01-14T12:21:14.467Z,27.3
2019-01-14T12:22:04.227Z,27.1
2019-01-14T12:22:54.914Z,27.4
2019-01-14T12:23:44.311Z,27.8
2019-01-14T12:24:35.206Z,28.1
2019-01-14T12:25:26.475Z,28.3
2019-01-14T12:26:15.036Z,28.3
2019-01-14T12:27:04.322Z,28.4
2019-01-14T12:27:54.884Z,28.3
2019-01-14T12:28:44.353Z,28.2
2019-01-14T12:29:34.709Z,28
2019-01-14T12:30:25.363Z,27.8
2019-01-14T12:31:15.369Z,27.5
2019-01-14T12:32:04.869Z,27.3
2019-01-14T12:32:54.936Z,27.1
2019-01-14T12:33:44.135Z,27
2019-01-14T12:34:35.087Z,27.1
2019-01-14T12:35:24.628Z,27.4
2019-01-14T12:37:05.552Z,28.1
2019-01-14T12:37:55.628Z,28.3
2019-01-14T12:38:45.955Z,28.4
2019-01-14T12:39:34.880Z,28.4
2019-01-14T12:40:27.746Z,28.3
2019-01-14T12:41:14.723Z,28.2
2019-01-14T12:42:04.770Z,28.1
2019-01-14T12:43:44.713Z,27.6
2019-01-14T12:44:34.967Z,27.4
2019-01-14T12:45:25.397Z,27.6
2019-01-14T12:46:14.805Z,28
2019-01-14T12:47:05.401Z,28.3
2019-01-14T12:47:55.450Z,28.4
2019-01-14T12:48:45.982Z,28.6